カーナーク/チューレ空軍基地 の空港の天気 - METARとTAF

チューレ空軍基地 ( BGTL / THU ) - グリーンランド カーナーク
飛行場実況気象(Metar)
観測時間05/28 06:06 ADT (05/28 09:06 UTC)
風向・風速北北東 9m/s
視程10km以上
天気現象
少しの雲 雲底高度 820m
気温-2℃
湿度100%
気圧1013.8hPa
METARBGTL 280906Z AUTO 02018KT 9999 FEW027 M02/M02 A2998 RMK AO2 WSHFT 0854 SLP138 TSNO $
過去の天気等 Google飛行場航空写真 Wunderground天気予報

過去48時間のMETAR

飛行場予報(TAF)
データがありません